createdAt,value
2022-08-22T00:00:24.432Z,1.90
2022-08-22T00:02:41.978Z,2.40
2022-08-22T00:02:45.630Z,2.10
2022-08-22T00:03:07.364Z,2.00
2022-08-22T00:03:08.817Z,2.10
2022-08-22T00:03:09.129Z,2.20
2022-08-22T00:03:11.736Z,1.73
2022-08-22T00:03:25.928Z,1.80
2022-08-22T00:06:22.157Z,1.50
2022-08-22T00:09:10.600Z,1.73
2022-08-22T00:12:05.302Z,1.70
2022-08-22T00:14:58.486Z,1.53
2022-08-22T00:18:19.838Z,1.50
2022-08-22T00:21:17.322Z,1.63
2022-08-22T00:24:18.038Z,1.70
2022-08-22T00:27:17.496Z,1.60
2022-08-22T00:30:13.045Z,1.60
2022-08-22T00:33:05.043Z,1.97
2022-08-22T00:35:58.846Z,1.70
2022-08-22T00:38:59.015Z,1.60
2022-08-22T00:41:56.365Z,1.63
2022-08-22T00:45:17.379Z,1.60
2022-08-22T00:48:27.109Z,1.60
2022-08-22T00:51:33.054Z,1.50
2022-08-22T00:54:40.210Z,1.60
2022-08-22T00:57:47.427Z,1.67
2022-08-22T01:00:42.255Z,1.60
2022-08-22T01:03:39.850Z,1.70
2022-08-22T01:06:40.020Z,1.50
2022-08-22T01:09:38.127Z,1.60
2022-08-22T01:12:39.706Z,1.50
2022-08-22T01:15:30.558Z,1.47
2022-08-22T01:18:39.423Z,1.60
2022-08-22T01:21:24.738Z,1.60
2022-08-22T01:24:09.957Z,1.50
2022-08-22T01:27:17.525Z,1.70
2022-08-22T01:30:25.174Z,1.90
2022-08-22T01:33:40.782Z,1.50
2022-08-22T01:37:04.434Z,1.63
2022-08-22T01:39:52.760Z,1.80
2022-08-22T01:42:48.431Z,1.40
2022-08-22T01:46:08.141Z,1.73
2022-08-22T01:49:05.119Z,1.50
2022-08-22T01:51:57.163Z,1.60
2022-08-22T01:55:03.883Z,1.43
2022-08-22T01:57:56.111Z,1.60
2022-08-22T02:01:20.249Z,2.00
2022-08-22T02:04:35.023Z,1.50
2022-08-22T02:07:31.842Z,1.67
2022-08-22T02:10:41.734Z,1.50
2022-08-22T02:13:36.616Z,1.60
2022-08-22T02:16:31.258Z,1.83
2022-08-22T02:19:16.680Z,1.77
2022-08-22T02:22:18.190Z,1.43
2022-08-22T02:25:13.444Z,1.53
2022-08-22T02:28:14.540Z,1.70
2022-08-22T02:31:36.795Z,1.60
2022-08-22T02:34:53.393Z,1.60
2022-08-22T02:37:50.126Z,1.50
2022-08-22T02:40:44.301Z,1.47
2022-08-22T02:43:39.561Z,1.50
2022-08-22T02:46:40.141Z,1.90
2022-08-22T02:49:33.535Z,1.80
2022-08-22T02:52:26.338Z,1.30
2022-08-22T02:55:54.282Z,1.90
2022-08-22T02:58:47.409Z,1.90
2022-08-22T03:01:37.930Z,1.63
2022-08-22T03:04:31.859Z,1.60
2022-08-22T03:07:20.279Z,5.30
2022-08-22T03:10:26.267Z,2.90
2022-08-22T03:13:16.996Z,2.50
2022-08-22T03:16:38.502Z,2.60
2022-08-22T03:19:47.221Z,2.37
2022-08-22T03:22:51.657Z,2.40
2022-08-22T03:25:40.481Z,2.40
2022-08-22T03:29:04.323Z,2.23
2022-08-22T03:32:13.606Z,2.50
2022-08-22T03:35:10.657Z,2.70
2022-08-22T03:38:39.797Z,2.70
2022-08-22T03:42:09.247Z,2.30
2022-08-22T03:45:04.017Z,2.57
2022-08-22T03:48:02.430Z,2.27
2022-08-22T03:51:10.303Z,2.20
2022-08-22T03:54:33.186Z,2.20
2022-08-22T03:57:24.652Z,2.10
2022-08-22T04:00:30.625Z,1.97
2022-08-22T04:03:31.836Z,1.70
2022-08-22T04:06:36.097Z,1.60
2022-08-22T04:09:42.913Z,2.00
2022-08-22T04:13:03.741Z,2.20
2022-08-22T04:16:19.597Z,2.03
2022-08-22T04:19:28.150Z,1.70
2022-08-22T04:22:26.162Z,1.83
2022-08-22T04:25:19.122Z,1.80
2022-08-22T04:28:43.378Z,2.03
2022-08-22T04:31:34.771Z,2.10
2022-08-22T04:34:39.433Z,1.77
2022-08-22T04:37:28.053Z,1.80
2022-08-22T04:40:26.054Z,1.73
2022-08-22T04:43:22.087Z,2.20
2022-08-22T04:46:23.647Z,2.30
2022-08-22T04:49:32.794Z,1.90
2022-08-22T04:52:55.394Z,2.30
2022-08-22T04:55:56.118Z,1.93
2022-08-22T04:59:04.679Z,1.90
2022-08-22T05:02:06.675Z,2.03
2022-08-22T05:05:04.079Z,1.77
2022-08-22T05:07:57.211Z,1.90
2022-08-22T05:10:47.340Z,2.00
2022-08-22T05:13:44.827Z,2.60
2022-08-22T05:16:40.691Z,2.37
2022-08-22T05:19:36.076Z,2.30
2022-08-22T05:22:33.931Z,2.40
2022-08-22T05:25:24.745Z,2.47
2022-08-22T05:28:32.331Z,2.73
2022-08-22T05:31:26.370Z,2.40
2022-08-22T05:34:16.810Z,2.40
2022-08-22T05:37:15.406Z,2.30
2022-08-22T05:40:01.604Z,2.50
2022-08-22T05:42:47.786Z,2.13
2022-08-22T05:45:35.320Z,2.20
2022-08-22T05:48:30.205Z,2.23
2022-08-22T05:51:22.212Z,2.37
2022-08-22T05:54:21.571Z,2.70
2022-08-22T05:57:31.202Z,2.20
2022-08-22T06:00:21.808Z,2.20
2022-08-22T06:03:27.696Z,2.40
2022-08-22T06:06:19.755Z,2.30
2022-08-22T06:09:12.671Z,1.83
2022-08-22T06:12:15.148Z,2.03
2022-08-22T06:15:21.112Z,2.20
2022-08-22T06:18:12.814Z,2.10
2022-08-22T06:21:06.815Z,2.20
2022-08-22T06:24:21.325Z,2.17
2022-08-22T06:27:14.291Z,2.00
2022-08-22T06:30:03.032Z,2.40
2022-08-22T06:32:58.806Z,2.00
2022-08-22T06:36:20.556Z,1.90
2022-08-22T06:39:22.929Z,2.03
2022-08-22T06:42:19.180Z,2.27
2022-08-22T06:45:12.213Z,2.20
2022-08-22T06:50:51.741Z,2.17
2022-08-22T06:53:48.041Z,1.80
2022-08-22T06:56:39.021Z,2.17
2022-08-22T06:59:29.028Z,2.20
2022-08-22T07:02:30.526Z,2.20
2022-08-22T07:05:28.258Z,2.37
2022-08-22T07:08:20.306Z,2.00
2022-08-22T07:11:21.911Z,2.37
2022-08-22T07:14:14.390Z,1.80
2022-08-22T07:17:02.654Z,2.00
2022-08-22T07:19:58.519Z,2.03
2022-08-22T07:23:12.333Z,2.10
2022-08-22T07:26:19.437Z,2.23
2022-08-22T07:29:44.217Z,2.20
2022-08-22T07:33:26.286Z,2.10
2022-08-22T07:36:54.959Z,2.00
2022-08-22T07:39:40.553Z,1.50
2022-08-22T07:42:52.077Z,1.90
2022-08-22T07:45:46.708Z,2.10
2022-08-22T07:48:53.640Z,1.90
2022-08-22T07:51:47.113Z,2.30
2022-08-22T07:54:38.317Z,2.07
2022-08-22T07:57:29.631Z,2.40
2022-08-22T08:00:19.055Z,2.23
2022-08-22T08:03:07.054Z,2.37
2022-08-22T08:05:53.788Z,2.13
2022-08-22T08:08:42.031Z,2.57
2022-08-22T08:11:33.709Z,2.70
2022-08-22T08:14:21.971Z,2.67
2022-08-22T08:17:32.302Z,2.60
2022-08-22T08:20:21.262Z,2.87
2022-08-22T08:23:10.315Z,2.23
2022-08-22T08:26:30.482Z,2.40
2022-08-22T08:29:18.731Z,2.33
2022-08-22T08:32:09.324Z,2.70
2022-08-22T08:34:55.116Z,2.60
2022-08-22T08:37:59.056Z,2.50
2022-08-22T08:41:26.655Z,2.43
2022-08-22T08:44:35.809Z,2.90
2022-08-22T08:50:55.102Z,2.95
2022-08-22T08:53:52.999Z,2.90
2022-08-22T08:56:47.615Z,2.70
2022-08-22T09:00:02.879Z,2.77
2022-08-22T09:02:56.037Z,2.63
2022-08-22T09:06:13.020Z,2.45
2022-08-22T09:09:15.930Z,2.10
2022-08-22T09:12:25.823Z,2.10
2022-08-22T09:16:04.499Z,2.30
2022-08-22T09:18:59.459Z,2.53
2022-08-22T09:22:14.663Z,2.17
2022-08-22T09:25:11.761Z,1.97
2022-08-22T09:28:21.601Z,1.93
2022-08-22T09:32:00.138Z,2.10
2022-08-22T09:34:53.637Z,1.90
2022-08-22T09:38:06.986Z,2.03
2022-08-22T09:43:48.542Z,2.30
2022-08-22T09:46:44.900Z,2.33
2022-08-22T09:49:45.735Z,2.40
2022-08-22T09:52:36.037Z,1.90
2022-08-22T09:55:57.118Z,2.47
2022-08-22T09:58:46.410Z,2.43
2022-08-22T10:01:34.733Z,2.30
2022-08-22T10:04:26.309Z,2.40
2022-08-22T10:07:12.287Z,2.27
2022-08-22T10:10:24.797Z,2.17
2022-08-22T10:13:38.483Z,2.40
2022-08-22T10:16:51.710Z,2.30
2022-08-22T10:19:39.822Z,2.30
2022-08-22T10:22:35.194Z,2.30
2022-08-22T10:25:45.457Z,2.53
2022-08-22T10:28:54.217Z,2.60
2022-08-22T10:32:10.750Z,2.33
2022-08-22T10:35:27.591Z,2.63
2022-08-22T10:38:27.619Z,2.30
2022-08-22T10:41:15.657Z,2.60
2022-08-22T10:44:17.305Z,2.27
2022-08-22T10:47:12.422Z,2.17
2022-08-22T10:50:20.097Z,2.00
2022-08-22T10:53:35.863Z,2.10
2022-08-22T10:56:31.407Z,2.03
2022-08-22T10:59:29.165Z,2.20
2022-08-22T11:02:30.713Z,2.27
2022-08-22T11:05:42.828Z,2.20
2022-08-22T11:08:44.853Z,2.20
2022-08-22T11:11:37.981Z,2.10
2022-08-22T11:14:37.975Z,2.42
2022-08-22T11:17:58.470Z,2.30
2022-08-22T11:21:11.003Z,1.87
2022-08-22T11:24:02.472Z,2.17
2022-08-22T11:26:59.971Z,1.97
2022-08-22T11:30:02.327Z,2.10
2022-08-22T11:33:33.920Z,2.60
2022-08-22T11:37:04.054Z,2.80
2022-08-22T11:40:13.486Z,2.60
2022-08-22T11:43:20.593Z,2.40
2022-08-22T11:46:46.292Z,2.30
2022-08-22T11:49:57.427Z,2.90
2022-08-22T11:53:17.451Z,2.57
2022-08-22T11:56:24.634Z,2.40
2022-08-22T11:59:19.812Z,2.50
2022-08-22T12:02:21.767Z,2.47
2022-08-22T12:05:20.028Z,2.50
2022-08-22T12:08:17.133Z,2.23
2022-08-22T12:11:15.395Z,2.50
2022-08-22T12:14:11.424Z,2.30
2022-08-22T12:17:55.471Z,2.10
2022-08-22T12:21:12.624Z,2.30
2022-08-22T12:24:19.319Z,2.20
2022-08-22T12:27:28.675Z,2.80
2022-08-22T12:30:54.650Z,2.50
2022-08-22T12:33:52.276Z,3.00
2022-08-22T12:36:52.831Z,2.70
2022-08-22T12:40:10.407Z,2.30
2022-08-22T12:43:28.730Z,2.17
2022-08-22T12:46:24.507Z,2.23
2022-08-22T12:49:37.072Z,2.10
2022-08-22T12:52:28.491Z,2.20
2022-08-22T12:55:19.912Z,2.40
2022-08-22T12:58:23.890Z,2.27
2022-08-22T13:01:10.941Z,2.30
2022-08-22T13:04:01.238Z,2.10
2022-08-22T13:06:57.422Z,2.30
2022-08-22T13:09:48.978Z,2.10
2022-08-22T13:12:45.290Z,2.30
2022-08-22T13:15:43.887Z,2.30
2022-08-22T13:18:44.577Z,2.40
2022-08-22T13:21:36.180Z,2.30
2022-08-22T13:24:51.796Z,2.50
2022-08-22T13:27:50.812Z,2.30
2022-08-22T13:30:40.769Z,2.33
2022-08-22T13:33:34.888Z,2.10
2022-08-22T13:36:22.052Z,2.10
2022-08-22T13:39:13.445Z,2.20
2022-08-22T13:42:07.495Z,2.30
2022-08-22T13:45:05.406Z,2.60
2022-08-22T13:48:03.668Z,2.53
2022-08-22T13:51:09.825Z,2.30
2022-08-22T13:54:20.422Z,2.40
2022-08-22T13:57:23.770Z,2.53
2022-08-22T14:00:28.490Z,2.63
2022-08-22T14:03:22.711Z,2.70
2022-08-22T14:06:37.228Z,2.60
2022-08-22T14:09:35.655Z,2.77
2022-08-22T14:12:50.153Z,2.90
2022-08-22T14:15:45.619Z,3.03
2022-08-22T14:18:45.653Z,2.63
2022-08-22T14:21:40.146Z,2.57
2022-08-22T14:24:55.589Z,2.60
2022-08-22T14:27:59.327Z,2.67
2022-08-22T14:30:54.375Z,2.60
2022-08-22T14:33:50.947Z,2.90
2022-08-22T14:36:59.036Z,2.80
2022-08-22T14:39:50.574Z,2.87
2022-08-22T14:42:48.064Z,2.90
2022-08-22T14:45:40.241Z,2.50
2022-08-22T14:48:35.422Z,2.77
2022-08-22T14:51:25.616Z,2.83
2022-08-22T14:54:21.298Z,2.60
2022-08-22T14:57:14.162Z,2.60
2022-08-22T15:00:12.196Z,2.60
2022-08-22T15:03:27.903Z,2.23
2022-08-22T15:06:31.509Z,2.70
2022-08-22T15:09:22.932Z,2.58
2022-08-22T15:12:22.777Z,2.40
2022-08-22T15:15:49.698Z,2.43
2022-08-22T15:18:39.866Z,2.43
2022-08-22T15:21:32.806Z,2.53
2022-08-22T15:24:19.119Z,3.00
2022-08-22T15:27:06.619Z,2.73
2022-08-22T15:29:59.868Z,2.50
2022-08-22T15:32:46.336Z,2.60
2022-08-22T15:35:32.251Z,2.33
2022-08-22T15:38:27.947Z,2.70
2022-08-22T15:41:26.186Z,4.17
2022-08-22T15:44:32.658Z,6.10
2022-08-22T15:47:38.371Z,14.87
2022-08-22T15:50:37.869Z,47.30
2022-08-22T15:53:45.593Z,59.30
2022-08-22T15:56:41.740Z,52.37
2022-08-22T15:59:29.294Z,39.47
2022-08-22T16:02:27.211Z,43.57
2022-08-22T16:05:12.601Z,43.73
2022-08-22T16:07:57.870Z,44.73
2022-08-22T16:11:16.175Z,38.23
2022-08-22T16:14:21.443Z,38.90
2022-08-22T16:17:26.697Z,46.17
2022-08-22T16:20:19.800Z,35.07
2022-08-22T16:23:07.491Z,35.00
2022-08-22T16:25:53.221Z,32.80
2022-08-22T16:28:58.192Z,30.83
2022-08-22T16:31:45.403Z,37.60
2022-08-22T16:34:37.186Z,36.97
2022-08-22T16:37:30.679Z,36.23
2022-08-22T16:40:22.270Z,30.67
2022-08-22T16:43:18.194Z,34.17
2022-08-22T16:46:33.161Z,33.83
2022-08-22T16:49:33.015Z,31.90
2022-08-22T16:52:24.822Z,28.97
2022-08-22T16:55:28.738Z,28.40
2022-08-22T16:58:32.474Z,31.23
2022-08-22T17:01:42.170Z,28.23
2022-08-22T17:04:40.277Z,27.30
2022-08-22T17:07:38.236Z,27.03
2022-08-22T17:10:46.170Z,25.13
2022-08-22T17:13:56.803Z,23.73
2022-08-22T17:16:54.011Z,23.33
2022-08-22T17:20:05.349Z,21.63
2022-08-22T17:23:18.396Z,22.97
2022-08-22T17:26:27.217Z,22.42
2022-08-22T17:29:42.203Z,18.93
2022-08-22T17:33:09.603Z,18.77
2022-08-22T17:36:26.994Z,17.50
2022-08-22T17:39:31.402Z,17.03
2022-08-22T17:45:33.337Z,15.23
2022-08-22T17:48:40.505Z,15.03
2022-08-22T17:51:45.145Z,15.13
2022-08-22T17:54:42.499Z,15.23
2022-08-22T17:57:39.958Z,14.40
2022-08-22T18:00:30.136Z,13.70
2022-08-22T18:03:40.705Z,12.30
2022-08-22T18:06:32.907Z,12.50
2022-08-22T18:09:40.180Z,12.10
2022-08-22T18:12:40.027Z,12.30
2022-08-22T18:15:31.870Z,11.10
2022-08-22T18:18:30.091Z,10.37
2022-08-22T18:21:26.973Z,10.63
2022-08-22T18:24:12.698Z,9.27
2022-08-22T18:27:08.193Z,9.40
2022-08-22T18:30:23.270Z,9.03
2022-08-22T18:33:22.505Z,9.20
2022-08-22T18:36:20.727Z,8.53
2022-08-22T18:39:15.393Z,8.60
2022-08-22T18:42:09.493Z,8.03
2022-08-22T18:44:55.335Z,7.47
2022-08-22T18:47:41.400Z,7.43
2022-08-22T18:50:33.312Z,7.50
2022-08-22T18:53:44.013Z,7.30
2022-08-22T18:56:54.662Z,8.07
2022-08-22T19:00:16.715Z,7.60
2022-08-22T19:03:39.445Z,7.23
2022-08-22T19:06:43.896Z,6.13
2022-08-22T19:10:04.657Z,5.87
2022-08-22T19:12:52.805Z,5.73
2022-08-22T19:15:57.417Z,5.43
2022-08-22T19:18:54.445Z,6.00
2022-08-22T19:22:20.611Z,5.77
2022-08-22T19:25:20.628Z,5.40
2022-08-22T19:28:09.577Z,5.17
2022-08-22T19:31:32.499Z,5.30
2022-08-22T19:34:30.044Z,4.67
2022-08-22T19:37:32.188Z,4.73
2022-08-22T19:40:44.497Z,4.90
2022-08-22T19:43:42.169Z,4.57
2022-08-22T19:46:36.939Z,4.60
2022-08-22T19:49:44.508Z,4.87
2022-08-22T19:52:33.208Z,3.97
2022-08-22T19:55:38.588Z,3.97
2022-08-22T19:58:32.826Z,4.30
2022-08-22T20:01:40.416Z,4.20
2022-08-22T20:04:47.237Z,4.50
2022-08-22T20:07:32.765Z,5.10
2022-08-22T20:10:38.131Z,4.53
2022-08-22T20:13:31.220Z,4.67
2022-08-22T20:16:44.030Z,5.28
2022-08-22T20:19:37.372Z,4.40
2022-08-22T20:22:30.723Z,5.15
2022-08-22T20:25:42.900Z,4.57
2022-08-22T20:28:29.754Z,4.50
2022-08-22T20:31:24.846Z,4.27
2022-08-22T20:34:16.055Z,4.03
2022-08-22T20:37:27.074Z,3.80
2022-08-22T20:40:56.620Z,3.60
2022-08-22T20:43:54.301Z,4.20
2022-08-22T20:46:46.134Z,4.25
2022-08-22T20:49:34.270Z,4.23
2022-08-22T20:52:19.587Z,4.07
2022-08-22T20:55:07.107Z,3.80
2022-08-22T20:57:56.175Z,4.13
2022-08-22T21:00:46.648Z,4.20
2022-08-22T21:03:48.833Z,4.00
2022-08-22T21:06:36.150Z,3.73
2022-08-22T21:09:39.825Z,4.30
2022-08-22T21:12:26.419Z,3.93
2022-08-22T21:15:11.871Z,4.00
2022-08-22T21:17:57.652Z,4.33
2022-08-22T21:20:43.051Z,4.37
2022-08-22T21:23:28.242Z,4.30
2022-08-22T21:26:19.498Z,4.17
2022-08-22T21:29:08.754Z,3.80
2022-08-22T21:32:31.007Z,3.67
2022-08-22T21:35:32.624Z,3.93
2022-08-22T21:38:18.274Z,3.90
2022-08-22T21:41:05.516Z,4.03
2022-08-22T21:43:51.237Z,3.30
2022-08-22T21:46:39.930Z,3.83
2022-08-22T21:49:31.819Z,3.43
2022-08-22T21:52:27.070Z,3.20
2022-08-22T21:55:30.624Z,3.60
2022-08-22T21:58:35.861Z,3.30
2022-08-22T22:01:32.649Z,3.13
2022-08-22T22:04:18.478Z,3.20
2022-08-22T22:07:04.168Z,3.10
2022-08-22T22:09:54.850Z,3.20
2022-08-22T22:12:42.562Z,3.00
2022-08-22T22:15:31.893Z,3.23
2022-08-22T22:18:22.928Z,2.97
2022-08-22T22:21:09.265Z,3.10
2022-08-22T22:23:57.762Z,3.00
2022-08-22T22:26:44.991Z,3.03
2022-08-22T22:29:31.490Z,3.00
2022-08-22T22:32:16.805Z,3.00
2022-08-22T22:35:02.294Z,3.00
2022-08-22T22:37:47.833Z,2.83
2022-08-22T22:40:33.471Z,2.80
2022-08-22T22:43:18.874Z,2.97
2022-08-22T22:46:04.741Z,2.83
2022-08-22T22:48:50.184Z,2.93
2022-08-22T22:51:35.748Z,3.13
2022-08-22T22:54:21.195Z,2.60
2022-08-22T22:57:13.936Z,2.73
2022-08-22T23:00:04.231Z,2.70
2022-08-22T23:02:49.797Z,2.40
2022-08-22T23:05:35.653Z,2.80
2022-08-22T23:08:21.073Z,2.80
2022-08-22T23:11:15.342Z,2.63
2022-08-22T23:14:02.628Z,2.77
2022-08-22T23:16:48.059Z,2.47
2022-08-22T23:19:33.718Z,2.57
2022-08-22T23:22:19.950Z,2.60
2022-08-22T23:25:05.403Z,2.53
2022-08-22T23:27:52.382Z,2.67
2022-08-22T23:30:38.217Z,2.57
2022-08-22T23:33:23.543Z,2.63
2022-08-22T23:36:10.936Z,2.47
2022-08-22T23:38:56.568Z,2.50
2022-08-22T23:41:42.892Z,2.43
2022-08-22T23:44:31.514Z,3.00
2022-08-22T23:47:17.405Z,2.70
2022-08-22T23:50:06.182Z,2.40
2022-08-22T23:52:52.246Z,2.57
2022-08-22T23:55:37.601Z,2.47
2022-08-22T23:58:23.462Z,2.77
